KBKN

Blackwell-Tonkawa Municipal Airport

Blackwell, Oklahoma, USA
METAR KBKN 252215Z AUTO 19010KT 150V210 10SM CLR 31/18 A2988 RMK AO2
Observed Flight Rules
May-25 @ 22:15 UTC (13 minutes ago) Visual Flight Rules
Wind Visibility Clouds
190° at 10 knots 10 miles
  • Clear skies
Temperatures Readings
Current 31°C / 88°F
Dewpoint 18°C / 64°F
Humidity 46%
Altimeter 29.88" Hg
Pressure 1012 hPa
Elevation 314
METAR KBKN 252215Z AUTO 19010KT 150V210 10SM CLR 31/18 A2988 RMK AO2
Observed Flight Rules
May-25 @ 22:15 UTC
(13 minutes ago)
VFR
Wind Visibility
190° at 10 knots 10 miles
Clouds
  • Clear skies
Temperature Dewpoint
31°C / 88°F 18°C / 64°F
Humidity Altimeter Pressure
46% 29.88" Hg 1012 hPa